createdAt,value
2019-01-12T00:01:11.484Z,96090.34
2019-01-12T00:03:40.930Z,96089.38
2019-01-12T00:06:10.402Z,96096.53
2019-01-12T00:08:40.387Z,96094.95
2019-01-12T00:11:09.890Z,96094.19
2019-01-12T00:13:39.486Z,96090.31
2019-01-12T00:16:08.920Z,96097.64
2019-01-12T00:18:38.381Z,96092.23
2019-01-12T00:21:07.828Z,96101.12
2019-01-12T00:23:37.315Z,96104.08
2019-01-12T00:26:06.919Z,96110.61
2019-01-12T00:28:36.421Z,96105.39
2019-01-12T00:31:06.062Z,96101.48
2019-01-12T00:33:35.515Z,96105.23
2019-01-12T00:36:05.060Z,96105.52
2019-01-12T00:38:34.515Z,96114.73
2019-01-12T00:41:04.589Z,96105.98
2019-01-12T00:43:34.010Z,96115.38
2019-01-12T00:46:03.597Z,96116.14
2019-01-12T00:48:33.067Z,96114.49
2019-01-12T00:51:02.525Z,96115.30
2019-01-12T00:53:33.529Z,96110.53
2019-01-12T00:56:03.160Z,96110.66
2019-01-12T00:58:32.658Z,96123.97
2019-01-12T01:01:02.095Z,96119.56
2019-01-12T01:03:31.598Z,96118.25
2019-01-12T01:06:01.056Z,96121.09
2019-01-12T01:08:30.606Z,96123.17
2019-01-12T01:11:00.045Z,96136.17
2019-01-12T01:13:30.123Z,96129.81
2019-01-12T01:15:59.686Z,96134.34
2019-01-12T01:18:29.225Z,96133.98
2019-01-12T01:20:58.661Z,96147.23
2019-01-12T01:23:28.241Z,96147.88
2019-01-12T01:25:57.760Z,96162.71
2019-01-12T01:28:27.261Z,96165.03
2019-01-12T01:30:56.772Z,96161.73
2019-01-12T01:33:28.001Z,96158.47
2019-01-12T01:35:57.553Z,96151.52
2019-01-12T01:38:27.289Z,96155.39
2019-01-12T01:40:56.744Z,96152.13
2019-01-12T01:43:26.222Z,96149.83
2019-01-12T01:45:56.247Z,96154.45
2019-01-12T01:48:25.769Z,96150.84
2019-01-12T01:50:55.256Z,96172.00
2019-01-12T01:53:25.065Z,96159.87
2019-01-12T01:55:54.515Z,96162.84
2019-01-12T01:58:24.023Z,96166.55
2019-01-12T02:00:53.487Z,96165.56
2019-01-12T02:03:22.936Z,96170.42
2019-01-12T02:05:52.492Z,96168.59
2019-01-12T02:08:21.965Z,96163.98
2019-01-12T02:10:51.431Z,96168.23
2019-01-12T02:13:20.879Z,96160.86
2019-01-12T02:15:50.334Z,96162.88
2019-01-12T02:18:20.156Z,96164.50
2019-01-12T02:20:49.630Z,96164.47
2019-01-12T02:23:19.156Z,96164.47
2019-01-12T02:25:48.626Z,96164.28
2019-01-12T02:28:18.072Z,96156.41
2019-01-12T02:30:47.567Z,96158.05
2019-01-12T02:33:17.011Z,96139.29
2019-01-12T02:35:46.480Z,96144.33
2019-01-12T02:38:15.984Z,96143.56
2019-01-12T02:40:45.519Z,96150.29
2019-01-12T02:43:15.006Z,96155.88
2019-01-12T02:45:44.459Z,96151.13
2019-01-12T02:48:13.961Z,96146.47
2019-01-12T02:50:43.806Z,96151.53
2019-01-12T02:53:13.363Z,96162.11
2019-01-12T02:55:42.816Z,96155.17
2019-01-12T02:58:12.262Z,96147.10
2019-01-12T03:00:41.747Z,96147.78
2019-01-12T03:03:11.231Z,96150.63
2019-01-12T03:05:40.748Z,96147.25
2019-01-12T03:08:11.343Z,96139.03
2019-01-12T03:10:40.862Z,96143.09
2019-01-12T03:13:10.309Z,96142.67
2019-01-12T03:15:41.421Z,96138.39
2019-01-12T03:18:11.038Z,96137.60
2019-01-12T03:20:40.529Z,96137.98
2019-01-12T03:23:10.459Z,96134.27
2019-01-12T03:25:39.970Z,96146.58
2019-01-12T03:28:09.467Z,96144.59
2019-01-12T03:30:38.976Z,96145.83
2019-01-12T03:33:08.470Z,96142.22
2019-01-12T03:35:37.991Z,96143.91
2019-01-12T03:38:07.514Z,96140.98
2019-01-12T03:40:36.999Z,96138.28
2019-01-12T03:43:06.546Z,96141.55
2019-01-12T03:45:36.016Z,96139.27
2019-01-12T03:48:05.604Z,96140.80
2019-01-12T03:50:35.111Z,96136.02
2019-01-12T03:53:04.549Z,96136.25
2019-01-12T03:55:34.441Z,96136.21
2019-01-12T03:58:03.919Z,96142.59
2019-01-12T04:00:33.433Z,96133.84
2019-01-12T04:03:02.884Z,96127.01
2019-01-12T04:05:32.412Z,96126.66
2019-01-12T04:08:01.865Z,96126.29
2019-01-12T04:10:31.346Z,96121.92
2019-01-12T04:13:00.802Z,96133.08
2019-01-12T04:15:30.401Z,96130.53
2019-01-12T04:18:00.194Z,96124.14
2019-01-12T04:20:29.649Z,96123.66
2019-01-12T04:22:59.093Z,96122.09
2019-01-12T04:25:33.522Z,96119.50
2019-01-12T04:28:00.162Z,96120.30
2019-01-12T04:30:29.617Z,96116.11
2019-01-12T04:32:59.984Z,96122.98
2019-01-12T04:35:29.462Z,96117.16
2019-01-12T04:37:58.982Z,96119.14
2019-01-12T04:40:28.471Z,96120.34
2019-01-12T04:42:57.910Z,96125.04
2019-01-12T04:45:27.436Z,96114.66
2019-01-12T04:47:56.929Z,96117.97
2019-01-12T04:50:26.377Z,96118.41
2019-01-12T04:52:55.837Z,96115.89
2019-01-12T04:55:25.285Z,96114.81
2019-01-12T04:57:54.791Z,96105.36
2019-01-12T05:00:24.250Z,96097.27
2019-01-12T05:02:53.779Z,96111.80
2019-01-12T05:05:23.233Z,96114.13
2019-01-12T05:07:52.720Z,96106.48
2019-01-12T05:10:22.172Z,96104.78
2019-01-12T05:12:51.677Z,96110.03
2019-01-12T05:15:21.128Z,96103.31
2019-01-12T05:17:50.619Z,96105.61
2019-01-12T05:20:20.481Z,96111.59
2019-01-12T05:22:50.012Z,96105.36
2019-01-12T05:25:20.080Z,96098.40
2019-01-12T05:27:49.606Z,96110.77
2019-01-12T05:30:20.643Z,96093.33
2019-01-12T05:32:50.388Z,96093.72
2019-01-12T05:35:20.303Z,96087.97
2019-01-12T05:37:49.815Z,96101.13
2019-01-12T05:40:19.343Z,96100.48
2019-01-12T05:42:48.835Z,96094.17
2019-01-12T05:45:18.303Z,96104.25
2019-01-12T05:47:47.771Z,96117.94
2019-01-12T05:50:17.358Z,96114.04
2019-01-12T05:52:46.960Z,96112.23
2019-01-12T05:55:16.551Z,96109.02
2019-01-12T05:57:46.007Z,96108.42
2019-01-12T06:00:18.940Z,96116.72
2019-01-12T06:02:48.450Z,96113.83
2019-01-12T06:05:17.899Z,96109.20
2019-01-12T06:07:47.610Z,96130.65
2019-01-12T06:10:17.229Z,96124.99
2019-01-12T06:12:46.844Z,96120.91
2019-01-12T06:15:16.640Z,96124.31
2019-01-12T06:17:46.246Z,96134.25
2019-01-12T06:20:16.648Z,96130.75
2019-01-12T06:22:46.120Z,96134.29
2019-01-12T06:25:15.729Z,96132.98
2019-01-12T06:27:45.352Z,96138.89
2019-01-12T06:30:17.960Z,96130.36
2019-01-12T06:32:47.598Z,96132.20
2019-01-12T06:35:17.190Z,96133.23
2019-01-12T06:37:46.726Z,96138.25
2019-01-12T06:40:18.015Z,96131.88
2019-01-12T06:42:47.978Z,96136.34
2019-01-12T06:45:18.556Z,96141.52
2019-01-12T06:47:48.094Z,96130.21
2019-01-12T06:50:20.057Z,96135.28
2019-01-12T06:52:49.533Z,96135.33
2019-01-12T06:55:19.140Z,96127.58
2019-01-12T06:57:48.622Z,96136.98
2019-01-12T07:00:19.550Z,96131.86
2019-01-12T07:02:49.101Z,96141.86
2019-01-12T07:05:18.703Z,96138.69
2019-01-12T07:07:50.056Z,96134.30
2019-01-12T07:10:19.501Z,96132.02
2019-01-12T07:12:48.988Z,96131.66
2019-01-12T07:15:18.889Z,96124.45
2019-01-12T07:17:48.370Z,96126.98
2019-01-12T07:20:18.097Z,96126.41
2019-01-12T07:22:47.607Z,96143.03
2019-01-12T07:25:17.058Z,96123.72
2019-01-12T07:27:47.554Z,96132.51
2019-01-12T07:30:20.789Z,96125.30
2019-01-12T07:32:50.548Z,96141.95
2019-01-12T07:35:20.075Z,96138.39
2019-01-12T07:37:49.566Z,96139.07
2019-01-12T07:40:19.100Z,96141.12
2019-01-12T07:42:48.674Z,96137.23
2019-01-12T07:45:18.184Z,96134.69
2019-01-12T07:47:47.707Z,96134.69
2019-01-12T07:50:19.170Z,96139.75
2019-01-12T07:52:48.740Z,96142.05
2019-01-12T07:55:18.248Z,96151.26
2019-01-12T07:57:47.703Z,96146.58
2019-01-12T08:00:21.390Z,96140.95
2019-01-12T08:02:50.850Z,96153.79
2019-01-12T08:05:20.980Z,96148.86
2019-01-12T08:07:51.627Z,96147.84
2019-01-12T08:10:23.195Z,96140.91
2019-01-12T08:12:52.776Z,96145.68
2019-01-12T08:15:22.399Z,96147.93
2019-01-12T08:17:52.277Z,96144.66
2019-01-12T08:20:22.195Z,96145.08
2019-01-12T08:22:51.625Z,96143.58
2019-01-12T08:25:21.098Z,96143.98
2019-01-12T08:27:50.603Z,96151.33
2019-01-12T08:30:20.192Z,96146.61
2019-01-12T08:32:49.723Z,96152.41
2019-01-12T08:35:19.262Z,96156.09
2019-01-12T08:37:48.810Z,96147.75
2019-01-12T08:40:18.341Z,96158.87
2019-01-12T08:42:47.937Z,96157.09
2019-01-12T08:45:17.679Z,96157.42
2019-01-12T08:47:47.163Z,96156.47
2019-01-12T08:50:18.437Z,96155.64
2019-01-12T08:52:48.047Z,96153.89
2019-01-12T08:55:18.141Z,96162.02
2019-01-12T08:57:47.825Z,96157.78
2019-01-12T09:00:20.183Z,96159.73
2019-01-12T09:02:49.768Z,96162.04
2019-01-12T09:05:19.278Z,96154.27
2019-01-12T09:07:48.897Z,96149.25
2019-01-12T09:10:19.740Z,96153.59
2019-01-12T09:12:49.646Z,96148.89
2019-01-12T09:15:19.156Z,96154.73
2019-01-12T09:17:48.697Z,96162.91
2019-01-12T09:20:18.209Z,96155.91
2019-01-12T09:22:47.691Z,96146.81
2019-01-12T09:25:17.319Z,96150.19
2019-01-12T09:27:46.836Z,96148.45
2019-01-12T09:30:21.175Z,96152.66
2019-01-12T09:32:51.076Z,96150.55
2019-01-12T09:35:20.579Z,96152.92
2019-01-12T09:37:50.178Z,96149.11
2019-01-12T09:40:19.965Z,96140.52
2019-01-12T09:42:49.521Z,96139.89
2019-01-12T09:45:19.662Z,96138.38
2019-01-12T09:47:49.182Z,96140.45
2019-01-12T09:50:20.186Z,96141.70
2019-01-12T09:52:51.343Z,96136.94
2019-01-12T09:55:21.000Z,96135.70
2019-01-12T09:57:50.541Z,96128.89
2019-01-12T10:00:23.193Z,96136.92
2019-01-12T10:02:53.231Z,96127.01
2019-01-12T10:05:23.452Z,96119.89
2019-01-12T10:07:53.006Z,96122.43
2019-01-12T10:10:23.107Z,96113.99
2019-01-12T10:12:52.619Z,96124.11
2019-01-12T10:15:22.216Z,96121.41
2019-01-12T10:17:51.849Z,96116.33
2019-01-12T10:20:21.374Z,96119.33
2019-01-12T10:22:51.263Z,96109.97
2019-01-12T10:25:20.857Z,96101.27
2019-01-12T10:27:50.320Z,96104.41
2019-01-12T10:30:22.898Z,96117.88
2019-01-12T10:32:52.424Z,96104.77
2019-01-12T10:35:21.958Z,96117.45
2019-01-12T10:37:51.876Z,96100.05
2019-01-12T10:40:21.861Z,96102.46
2019-01-12T10:42:55.256Z,96102.83
2019-01-12T10:45:25.482Z,96103.22
2019-01-12T10:47:55.043Z,96100.13
2019-01-12T10:50:31.641Z,96098.64
2019-01-12T10:53:01.271Z,96105.09
2019-01-12T10:55:32.377Z,96094.48
2019-01-12T10:58:01.887Z,96092.05
2019-01-12T11:00:34.772Z,96093.59
2019-01-12T11:03:04.456Z,96087.70
2019-01-12T11:05:34.131Z,96079.00
2019-01-12T11:08:04.065Z,96088.45
2019-01-12T11:10:33.571Z,96076.80
2019-01-12T11:13:03.043Z,96066.53
2019-01-12T11:15:32.654Z,96066.09
2019-01-12T11:18:02.686Z,96061.04
2019-01-12T11:20:32.710Z,96069.12
2019-01-12T11:23:02.401Z,96061.48
2019-01-12T11:25:31.921Z,96061.50
2019-01-12T11:28:01.371Z,96050.45
2019-01-12T11:30:31.042Z,96054.11
2019-01-12T11:33:00.521Z,96057.57
2019-01-12T11:35:31.239Z,96055.35
2019-01-12T11:38:00.766Z,96052.27
2019-01-12T11:40:30.441Z,96046.83
2019-01-12T11:42:59.969Z,96041.63
2019-01-12T11:45:29.597Z,96037.13
2019-01-12T11:48:00.869Z,96032.80
2019-01-12T11:50:30.376Z,96024.10
2019-01-12T11:53:01.209Z,96016.52
2019-01-12T11:55:30.875Z,96018.91
2019-01-12T11:58:00.472Z,96017.16
2019-01-12T12:00:30.629Z,96010.68
2019-01-12T12:03:00.322Z,96010.03
2019-01-12T12:05:31.047Z,95992.55
2019-01-12T12:08:00.598Z,96008.88
2019-01-12T12:10:31.210Z,95986.22
2019-01-12T12:13:00.769Z,95973.92
2019-01-12T12:15:30.457Z,95988.15
2019-01-12T12:17:59.977Z,95969.63
2019-01-12T12:20:29.708Z,95964.03
2019-01-12T12:22:59.297Z,95967.86
2019-01-12T12:25:28.955Z,95952.98
2019-01-12T12:27:59.108Z,95942.78
2019-01-12T12:30:30.632Z,95932.59
2019-01-12T12:33:01.174Z,95931.20
2019-01-12T12:35:37.461Z,95928.66
2019-01-12T12:38:02.092Z,95927.74
2019-01-12T12:40:31.781Z,95936.59
2019-01-12T12:43:01.242Z,95921.29
2019-01-12T12:45:31.705Z,95935.70
2019-01-12T12:48:01.255Z,95931.25
2019-01-12T12:50:30.906Z,95919.06
2019-01-12T12:53:00.431Z,95855.72
2019-01-12T12:55:31.686Z,95910.82
2019-01-12T12:58:02.282Z,95911.11
2019-01-12T13:00:31.931Z,95905.94
2019-01-12T13:03:01.987Z,95911.39
2019-01-12T13:05:31.903Z,95902.98
2019-01-12T13:08:01.479Z,95899.48
2019-01-12T13:10:30.990Z,95888.77
2019-01-12T13:13:00.565Z,95901.77
2019-01-12T13:15:31.712Z,95892.59
2019-01-12T13:18:01.216Z,95889.64
2019-01-12T13:20:30.790Z,95875.44
2019-01-12T13:23:01.297Z,95880.20
2019-01-12T13:25:30.842Z,95876.13
2019-01-12T13:28:00.374Z,95871.14
2019-01-12T13:30:30.086Z,95867.50
2019-01-12T13:32:59.715Z,95848.42
2019-01-12T13:35:29.180Z,95860.31
2019-01-12T13:37:59.287Z,95849.55
2019-01-12T13:40:29.695Z,95840.61
2019-01-12T13:42:59.839Z,95828.20
2019-01-12T13:45:29.850Z,95837.17
2019-01-12T13:47:59.381Z,95843.55
2019-01-12T13:50:29.481Z,95843.64
2019-01-12T13:52:59.058Z,95843.85
2019-01-12T13:55:28.729Z,95850.14
2019-01-12T13:58:00.481Z,95860.30
2019-01-12T14:00:34.547Z,95857.77
2019-01-12T14:03:05.440Z,95858.56
2019-01-12T14:05:34.989Z,95853.30
2019-01-12T14:08:07.047Z,95858.50
2019-01-12T14:10:37.546Z,95859.63
2019-01-12T14:13:07.567Z,95857.26
2019-01-12T14:15:37.283Z,95862.65
2019-01-12T14:18:08.678Z,95868.73
2019-01-12T14:20:41.661Z,95871.25
2019-01-12T14:23:11.326Z,95866.30
2019-01-12T14:25:40.969Z,95862.43
2019-01-12T14:28:10.505Z,95865.97
2019-01-12T14:30:43.426Z,95861.22
2019-01-12T14:33:12.981Z,95864.28
2019-01-12T14:35:42.464Z,95869.34
2019-01-12T14:38:12.137Z,95863.05
2019-01-12T14:40:41.581Z,95854.92
2019-01-12T14:43:11.156Z,95854.50
2019-01-12T14:45:40.854Z,95842.80
2019-01-12T14:48:10.375Z,95848.82
2019-01-12T14:50:39.817Z,95836.62
2019-01-12T14:53:09.748Z,95838.41
2019-01-12T14:55:39.755Z,95819.33
2019-01-12T14:58:09.301Z,95824.22
2019-01-12T15:00:38.891Z,95825.64
2019-01-12T15:03:08.438Z,95827.47
2019-01-12T15:05:38.065Z,95820.36
2019-01-12T15:08:07.652Z,95806.60
2019-01-12T15:10:37.150Z,95806.00
2019-01-12T15:13:07.589Z,95825.07
2019-01-12T15:15:37.140Z,95816.38
2019-01-12T15:18:08.656Z,95815.24
2019-01-12T15:20:38.143Z,95799.83
2019-01-12T15:23:07.588Z,95804.59
2019-01-12T15:25:38.108Z,95800.23
2019-01-12T15:28:09.320Z,95796.26
2019-01-12T15:30:38.807Z,95795.52
2019-01-12T15:33:08.347Z,95784.86
2019-01-12T15:35:37.911Z,95785.14
2019-01-12T15:38:07.447Z,95781.26
2019-01-12T15:40:36.907Z,95791.48
2019-01-12T15:43:06.375Z,95772.20
2019-01-12T15:45:35.928Z,95757.68
2019-01-12T15:48:05.726Z,95760.61
2019-01-12T15:50:35.254Z,95750.97
2019-01-12T15:53:04.862Z,95746.52
2019-01-12T15:55:34.313Z,95744.06
2019-01-12T15:58:04.376Z,95754.00
2019-01-12T16:00:35.816Z,95764.53
2019-01-12T16:03:05.444Z,95744.05
2019-01-12T16:05:35.044Z,95743.64
2019-01-12T16:08:04.611Z,95722.23
2019-01-12T16:10:34.161Z,95721.02
2019-01-12T16:13:03.670Z,95724.30
2019-01-12T16:15:33.151Z,95712.41
2019-01-12T16:18:02.692Z,95702.66
2019-01-12T16:20:36.043Z,95689.09
2019-01-12T16:23:06.039Z,95693.73
2019-01-12T16:25:35.598Z,95689.99
2019-01-12T16:28:05.255Z,95686.41
2019-01-12T16:30:34.695Z,95650.83
2019-01-12T16:33:06.045Z,95657.41
2019-01-12T16:35:35.664Z,95657.21
2019-01-12T16:38:05.622Z,95653.97
2019-01-12T16:40:35.104Z,95665.34
2019-01-12T16:43:05.437Z,95653.37
2019-01-12T16:45:34.906Z,95650.23
2019-01-12T16:48:04.541Z,95646.18
2019-01-12T16:50:34.066Z,95651.85
2019-01-12T16:53:03.672Z,95645.15
2019-01-12T16:55:33.300Z,95643.76
2019-01-12T16:58:02.817Z,95651.64
2019-01-12T17:00:32.389Z,95662.91
2019-01-12T17:03:01.952Z,95650.84
2019-01-12T17:05:32.001Z,95655.70
2019-01-12T17:08:01.701Z,95667.58
2019-01-12T17:10:32.123Z,95656.52
2019-01-12T17:13:01.815Z,95649.82
2019-01-12T17:15:34.853Z,95649.11
2019-01-12T17:18:02.545Z,95647.61
2019-01-12T17:20:32.057Z,95651.03
2019-01-12T17:23:01.554Z,95640.20
2019-01-12T17:25:31.147Z,95634.20
2019-01-12T17:28:00.621Z,95643.45
2019-01-12T17:30:30.187Z,95633.78
2019-01-12T17:32:59.800Z,95630.36
2019-01-12T17:35:29.489Z,95658.17
2019-01-12T17:37:59.867Z,95643.13
2019-01-12T17:40:29.884Z,95627.83
2019-01-12T17:42:59.913Z,95632.39
2019-01-12T17:45:30.021Z,95639.38
2019-01-12T17:47:59.496Z,95621.73
2019-01-12T17:50:29.178Z,95621.73
2019-01-12T17:52:58.630Z,95615.02
2019-01-12T17:55:28.284Z,95617.13
2019-01-12T17:57:58.161Z,95606.06
2019-01-12T18:00:30.060Z,95599.30
2019-01-12T18:02:59.558Z,95598.38
2019-01-12T18:05:29.096Z,95583.46
2019-01-12T18:07:58.662Z,95589.34
2019-01-12T18:10:28.244Z,95582.33
2019-01-12T18:12:57.726Z,95626.29
2019-01-12T18:15:27.417Z,95603.65
2019-01-12T18:17:57.273Z,95590.65
2019-01-12T18:20:27.289Z,95583.51
2019-01-12T18:22:57.100Z,95582.80
2019-01-12T18:25:27.130Z,95575.69
2019-01-12T18:27:57.233Z,95589.41
2019-01-12T18:30:27.891Z,95593.19
2019-01-12T18:32:57.359Z,95601.39
2019-01-12T18:35:26.887Z,95584.34
2019-01-12T18:37:56.401Z,95583.86
2019-01-12T18:40:25.960Z,95580.13
2019-01-12T18:42:55.465Z,95568.53
2019-01-12T18:45:24.972Z,95601.73
2019-01-12T18:47:54.485Z,95578.81
2019-01-12T18:50:26.438Z,95581.95
2019-01-12T18:52:56.243Z,95562.17
2019-01-12T18:55:25.867Z,95581.06
2019-01-12T18:57:55.329Z,95563.21
2019-01-12T19:00:29.369Z,95560.36
2019-01-12T19:02:59.353Z,95536.84
2019-01-12T19:05:29.351Z,95529.04
2019-01-12T19:07:59.772Z,95534.09
2019-01-12T19:10:29.811Z,95526.28
2019-01-12T19:12:59.605Z,95521.84
2019-01-12T19:15:30.439Z,95514.42
2019-01-12T19:18:00.356Z,95518.19
2019-01-12T19:20:30.200Z,95520.22
2019-01-12T19:23:00.089Z,95528.11
2019-01-12T19:25:30.155Z,95512.70
2019-01-12T19:28:00.017Z,95515.33
2019-01-12T19:30:29.853Z,95496.89
2019-01-12T19:32:59.761Z,95502.28
2019-01-12T19:35:29.977Z,95468.41
2019-01-12T19:37:59.907Z,95484.83
2019-01-12T19:40:29.903Z,95483.83
2019-01-12T19:42:59.715Z,95461.72
2019-01-12T19:45:30.483Z,95478.95
2019-01-12T19:48:00.569Z,95473.78
2019-01-12T19:50:30.800Z,95477.23
2019-01-12T19:53:00.605Z,95455.95
2019-01-12T19:55:30.527Z,95449.97
2019-01-12T19:58:00.437Z,95449.08
2019-01-12T20:00:30.966Z,95462.03
2019-01-12T20:03:00.904Z,95470.75
2019-01-12T20:05:31.922Z,95455.44
2019-01-12T20:08:04.708Z,95464.88
2019-01-12T20:10:35.235Z,95514.20
2019-01-12T20:13:05.359Z,95458.49
2019-01-12T20:15:35.271Z,95461.42
2019-01-12T20:18:05.205Z,95459.81
2019-01-12T20:20:35.330Z,95441.16
2019-01-12T20:23:05.222Z,95446.14
2019-01-12T20:25:35.474Z,95441.66
2019-01-12T20:28:05.360Z,95431.73
2019-01-12T20:30:51.479Z,95439.62
2019-01-12T20:33:38.059Z,95442.36
2019-01-12T20:36:32.580Z,95442.58
2019-01-12T20:39:22.232Z,95436.98
2019-01-12T20:42:16.218Z,95422.82
2019-01-12T20:45:20.775Z,95421.72
2019-01-12T20:48:10.215Z,95405.33
2019-01-12T20:50:59.904Z,95423.76
2019-01-12T20:53:43.649Z,95411.80
2019-01-12T20:56:36.502Z,95419.17
2019-01-12T20:59:28.273Z,95388.38
2019-01-12T21:02:26.650Z,95388.28
2019-01-12T21:05:12.603Z,95390.63
2019-01-12T21:08:04.162Z,95385.75
2019-01-12T21:11:02.021Z,95375.33
2019-01-12T21:13:41.785Z,95360.74
2019-01-12T21:16:15.929Z,95367.22
2019-01-12T21:18:45.408Z,95377.75
2019-01-12T21:21:15.105Z,95358.61
2019-01-12T21:23:44.644Z,95371.38
2019-01-12T21:26:15.773Z,95363.48
2019-01-12T21:28:45.306Z,95376.75
2019-01-12T21:31:14.782Z,95372.41
2019-01-12T21:33:44.338Z,95369.06
2019-01-12T21:36:15.452Z,95355.08
2019-01-12T21:38:45.236Z,95357.92
2019-01-12T21:41:14.828Z,95352.45
2019-01-12T21:43:44.415Z,95348.00
2019-01-12T21:46:15.162Z,95350.92
2019-01-12T21:48:44.699Z,95358.31
2019-01-12T21:51:14.247Z,95347.58
2019-01-12T21:53:43.768Z,95341.59
2019-01-12T21:56:13.252Z,95361.56
2019-01-12T21:58:43.277Z,95355.19
2019-01-12T22:01:13.394Z,95347.68
2019-01-12T22:03:43.347Z,95342.69
2019-01-12T22:06:13.355Z,95366.22
2019-01-12T22:08:43.552Z,95345.44
2019-01-12T22:11:19.431Z,95336.76
2019-01-12T22:13:49.423Z,95320.64
2019-01-12T22:16:19.461Z,95330.67
2019-01-12T22:18:49.562Z,95335.44
2019-01-12T22:21:19.496Z,95345.87
2019-01-12T22:23:49.626Z,95324.59
2019-01-12T22:26:19.739Z,95318.02
2019-01-12T22:28:49.735Z,95318.33
2019-01-12T22:31:19.855Z,95319.05
2019-01-12T22:33:49.978Z,95316.30
2019-01-12T22:36:20.122Z,95300.63
2019-01-12T22:38:50.120Z,95309.83
2019-01-12T22:41:20.151Z,95280.34
2019-01-12T22:43:50.356Z,95279.95
2019-01-12T22:46:20.485Z,95281.38
2019-01-12T22:48:50.596Z,95278.84
2019-01-12T22:51:20.619Z,95279.66
2019-01-12T22:53:50.548Z,95269.02
2019-01-12T22:56:20.567Z,95278.62
2019-01-12T22:58:50.769Z,95275.17
2019-01-12T23:01:25.823Z,95270.00
2019-01-12T23:03:56.030Z,95267.37
2019-01-12T23:06:27.190Z,95261.70
2019-01-12T23:08:57.411Z,95268.46
2019-01-12T23:11:27.532Z,95259.19
2019-01-12T23:13:57.633Z,95268.47
2019-01-12T23:16:27.688Z,95261.11
2019-01-12T23:18:57.294Z,95260.99
2019-01-12T23:21:26.754Z,95274.39
2019-01-12T23:23:56.235Z,95249.26
2019-01-12T23:26:25.695Z,95253.81
2019-01-12T23:28:55.165Z,95247.23
2019-01-12T23:31:24.592Z,95236.69
2019-01-12T23:33:54.026Z,95230.28
2019-01-12T23:36:23.856Z,95238.17
2019-01-12T23:38:53.273Z,95239.31
2019-01-12T23:41:22.716Z,95229.44
2019-01-12T23:43:52.222Z,95229.64
2019-01-12T23:46:21.684Z,95226.48
2019-01-12T23:48:51.104Z,95225.45
2019-01-12T23:51:20.534Z,95216.06
2019-01-12T23:53:49.974Z,95223.05
2019-01-12T23:56:19.411Z,95225.81
2019-01-12T23:58:48.846Z,95219.05
